sensor_id;sensor_type;location;lat;lon;timestamp;P1;durP1;ratioP1;P2;durP2;ratioP2
7359;SDS011;3720;48.274;7.796;2024-01-06T00:01:03;27.35;;;16.15;;
7359;SDS011;3720;48.274;7.796;2024-01-06T00:03:37;22.10;;;14.52;;
7359;SDS011;3720;48.274;7.796;2024-01-06T00:06:10;24.00;;;13.35;;
7359;SDS011;3720;48.274;7.796;2024-01-06T00:08:43;20.02;;;12.35;;
7359;SDS011;3720;48.274;7.796;2024-01-06T00:11:15;17.85;;;10.55;;
7359;SDS011;3720;48.274;7.796;2024-01-06T00:13:47;16.27;;;10.02;;
7359;SDS011;3720;48.274;7.796;2024-01-06T00:16:19;17.90;;;9.25;;
7359;SDS011;3720;48.274;7.796;2024-01-06T00:18:52;16.08;;;9.25;;
7359;SDS011;3720;48.274;7.796;2024-01-06T00:21:24;14.60;;;9.30;;
7359;SDS011;3720;48.274;7.796;2024-01-06T00:23:56;15.43;;;8.45;;
7359;SDS011;3720;48.274;7.796;2024-01-06T00:26:28;15.50;;;8.77;;
7359;SDS011;3720;48.274;7.796;2024-01-06T00:29:00;15.57;;;8.98;;
7359;SDS011;3720;48.274;7.796;2024-01-06T00:31:31;15.48;;;8.57;;
7359;SDS011;3720;48.274;7.796;2024-01-06T00:34:05;15.63;;;8.93;;
7359;SDS011;3720;48.274;7.796;2024-01-06T00:36:37;16.08;;;9.27;;
7359;SDS011;3720;48.274;7.796;2024-01-06T00:39:08;16.38;;;9.65;;
7359;SDS011;3720;48.274;7.796;2024-01-06T00:41:40;14.00;;;8.98;;
7359;SDS011;3720;48.274;7.796;2024-01-06T00:44:12;17.83;;;10.45;;
7359;SDS011;3720;48.274;7.796;2024-01-06T00:46:44;15.65;;;9.82;;
7359;SDS011;3720;48.274;7.796;2024-01-06T00:49:17;16.30;;;10.25;;
7359;SDS011;3720;48.274;7.796;2024-01-06T00:51:49;17.45;;;11.13;;
7359;SDS011;3720;48.274;7.796;2024-01-06T00:54:22;17.10;;;11.00;;
7359;SDS011;3720;48.274;7.796;2024-01-06T00:56:53;18.38;;;11.05;;
7359;SDS011;3720;48.274;7.796;2024-01-06T00:59:25;18.17;;;11.95;;
7359;SDS011;3720;48.274;7.796;2024-01-06T01:01:57;20.60;;;13.00;;
7359;SDS011;3720;48.274;7.796;2024-01-06T01:04:30;21.13;;;12.98;;
7359;SDS011;3720;48.274;7.796;2024-01-06T01:07:02;22.08;;;12.63;;
7359;SDS011;3720;48.274;7.796;2024-01-06T01:09:34;19.25;;;11.98;;
7359;SDS011;3720;48.274;7.796;2024-01-06T01:12:06;18.10;;;11.82;;
7359;SDS011;3720;48.274;7.796;2024-01-06T01:14:38;19.35;;;11.20;;
7359;SDS011;3720;48.274;7.796;2024-01-06T01:17:10;20.73;;;11.88;;
7359;SDS011;3720;48.274;7.796;2024-01-06T01:19:43;17.50;;;11.32;;
7359;SDS011;3720;48.274;7.796;2024-01-06T01:22:14;19.13;;;11.60;;
7359;SDS011;3720;48.274;7.796;2024-01-06T01:24:46;19.23;;;11.38;;
7359;SDS011;3720;48.274;7.796;2024-01-06T01:27:18;18.85;;;10.85;;
7359;SDS011;3720;48.274;7.796;2024-01-06T01:29:50;18.80;;;10.98;;
7359;SDS011;3720;48.274;7.796;2024-01-06T01:32:22;21.20;;;12.25;;
7359;SDS011;3720;48.274;7.796;2024-01-06T01:34:56;18.98;;;11.43;;
7359;SDS011;3720;48.274;7.796;2024-01-06T01:37:27;18.40;;;11.85;;
7359;SDS011;3720;48.274;7.796;2024-01-06T01:39:59;20.17;;;11.98;;
7359;SDS011;3720;48.274;7.796;2024-01-06T01:42:32;18.88;;;11.63;;
7359;SDS011;3720;48.274;7.796;2024-01-06T01:45:04;19.77;;;11.65;;
7359;SDS011;3720;48.274;7.796;2024-01-06T01:47:36;16.90;;;11.05;;
7359;SDS011;3720;48.274;7.796;2024-01-06T01:50:10;18.88;;;11.88;;
7359;SDS011;3720;48.274;7.796;2024-01-06T01:52:43;21.40;;;11.95;;
7359;SDS011;3720;48.274;7.796;2024-01-06T01:55:15;18.15;;;10.45;;
7359;SDS011;3720;48.274;7.796;2024-01-06T01:57:47;18.27;;;10.45;;
7359;SDS011;3720;48.274;7.796;2024-01-06T02:00:20;15.35;;;9.60;;
7359;SDS011;3720;48.274;7.796;2024-01-06T02:02:51;18.90;;;10.10;;
7359;SDS011;3720;48.274;7.796;2024-01-06T02:05:25;16.70;;;10.05;;
7359;SDS011;3720;48.274;7.796;2024-01-06T02:07:57;14.38;;;9.90;;
7359;SDS011;3720;48.274;7.796;2024-01-06T02:10:28;15.25;;;9.55;;
7359;SDS011;3720;48.274;7.796;2024-01-06T02:13:07;14.90;;;9.50;;
7359;SDS011;3720;48.274;7.796;2024-01-06T02:15:40;15.00;;;9.77;;
7359;SDS011;3720;48.274;7.796;2024-01-06T02:18:12;18.73;;;11.65;;
7359;SDS011;3720;48.274;7.796;2024-01-06T02:20:45;17.17;;;10.40;;
7359;SDS011;3720;48.274;7.796;2024-01-06T02:23:20;17.33;;;10.60;;
7359;SDS011;3720;48.274;7.796;2024-01-06T02:25:52;17.83;;;10.27;;
7359;SDS011;3720;48.274;7.796;2024-01-06T02:28:24;16.17;;;10.25;;
7359;SDS011;3720;48.274;7.796;2024-01-06T02:30:56;18.02;;;10.65;;
7359;SDS011;3720;48.274;7.796;2024-01-06T02:33:27;17.70;;;10.80;;
7359;SDS011;3720;48.274;7.796;2024-01-06T02:35:59;15.63;;;10.00;;
7359;SDS011;3720;48.274;7.796;2024-01-06T02:38:32;20.23;;;10.40;;
7359;SDS011;3720;48.274;7.796;2024-01-06T02:41:04;15.50;;;9.00;;
7359;SDS011;3720;48.274;7.796;2024-01-06T02:43:36;15.07;;;8.45;;
7359;SDS011;3720;48.274;7.796;2024-01-06T02:46:08;14.25;;;7.93;;
7359;SDS011;3720;48.274;7.796;2024-01-06T02:48:40;14.85;;;8.40;;
7359;SDS011;3720;48.274;7.796;2024-01-06T02:51:11;13.77;;;8.27;;
7359;SDS011;3720;48.274;7.796;2024-01-06T02:53:45;15.88;;;8.73;;
7359;SDS011;3720;48.274;7.796;2024-01-06T02:56:17;15.23;;;9.48;;
7359;SDS011;3720;48.274;7.796;2024-01-06T02:58:48;13.27;;;8.70;;
7359;SDS011;3720;48.274;7.796;2024-01-06T03:01:20;13.30;;;8.07;;
7359;SDS011;3720;48.274;7.796;2024-01-06T03:03:52;14.40;;;8.43;;
7359;SDS011;3720;48.274;7.796;2024-01-06T03:06:24;13.32;;;8.68;;
7359;SDS011;3720;48.274;7.796;2024-01-06T03:08:57;13.13;;;7.78;;
7359;SDS011;3720;48.274;7.796;2024-01-06T03:11:29;12.95;;;8.00;;
7359;SDS011;3720;48.274;7.796;2024-01-06T03:14:01;14.02;;;8.57;;
7359;SDS011;3720;48.274;7.796;2024-01-06T03:16:32;12.07;;;7.47;;
7359;SDS011;3720;48.274;7.796;2024-01-06T03:19:04;12.02;;;7.63;;
7359;SDS011;3720;48.274;7.796;2024-01-06T03:21:36;11.05;;;7.28;;
7359;SDS011;3720;48.274;7.796;2024-01-06T03:24:10;12.63;;;7.47;;
7359;SDS011;3720;48.274;7.796;2024-01-06T03:26:41;9.85;;;7.30;;
7359;SDS011;3720;48.274;7.796;2024-01-06T03:29:13;12.00;;;7.68;;
7359;SDS011;3720;48.274;7.796;2024-01-06T03:31:45;12.77;;;7.60;;
7359;SDS011;3720;48.274;7.796;2024-01-06T03:34:17;11.63;;;7.57;;
7359;SDS011;3720;48.274;7.796;2024-01-06T03:36:49;11.45;;;7.30;;
7359;SDS011;3720;48.274;7.796;2024-01-06T03:39:22;10.02;;;6.93;;
7359;SDS011;3720;48.274;7.796;2024-01-06T03:41:54;12.10;;;7.55;;
7359;SDS011;3720;48.274;7.796;2024-01-06T03:44:26;10.70;;;6.95;;
7359;SDS011;3720;48.274;7.796;2024-01-06T03:47:00;12.00;;;7.10;;
7359;SDS011;3720;48.274;7.796;2024-01-06T03:49:32;11.15;;;7.60;;
7359;SDS011;3720;48.274;7.796;2024-01-06T03:52:04;12.10;;;7.22;;
7359;SDS011;3720;48.274;7.796;2024-01-06T03:54:37;15.70;;;7.72;;
7359;SDS011;3720;48.274;7.796;2024-01-06T03:57:09;12.80;;;7.15;;
7359;SDS011;3720;48.274;7.796;2024-01-06T03:59:41;15.82;;;7.03;;
7359;SDS011;3720;48.274;7.796;2024-01-06T04:02:13;12.40;;;7.25;;
7359;SDS011;3720;48.274;7.796;2024-01-06T04:04:45;14.95;;;6.90;;
7359;SDS011;3720;48.274;7.796;2024-01-06T04:07:17;10.82;;;7.00;;
7359;SDS011;3720;48.274;7.796;2024-01-06T04:09:50;10.05;;;6.60;;
7359;SDS011;3720;48.274;7.796;2024-01-06T04:12:22;13.23;;;7.05;;
7359;SDS011;3720;48.274;7.796;2024-01-06T04:14:54;10.25;;;6.25;;
7359;SDS011;3720;48.274;7.796;2024-01-06T04:17:26;9.80;;;5.07;;
7359;SDS011;3720;48.274;7.796;2024-01-06T04:19:58;8.20;;;4.85;;
7359;SDS011;3720;48.274;7.796;2024-01-06T04:22:29;7.57;;;4.93;;
7359;SDS011;3720;48.274;7.796;2024-01-06T04:25:03;8.70;;;4.30;;
7359;SDS011;3720;48.274;7.796;2024-01-06T04:27:35;6.63;;;4.13;;
7359;SDS011;3720;48.274;7.796;2024-01-06T04:30:07;8.77;;;4.40;;
7359;SDS011;3720;48.274;7.796;2024-01-06T04:32:40;7.13;;;4.22;;
7359;SDS011;3720;48.274;7.796;2024-01-06T04:35:12;6.35;;;4.10;;
7359;SDS011;3720;48.274;7.796;2024-01-06T04:37:44;6.57;;;3.90;;
7359;SDS011;3720;48.274;7.796;2024-01-06T04:40:17;6.38;;;3.92;;
7359;SDS011;3720;48.274;7.796;2024-01-06T04:42:49;6.93;;;3.90;;
7359;SDS011;3720;48.274;7.796;2024-01-06T04:45:21;8.98;;;3.90;;
7359;SDS011;3720;48.274;7.796;2024-01-06T04:47:54;7.15;;;3.70;;
7359;SDS011;3720;48.274;7.796;2024-01-06T04:50:25;7.50;;;3.90;;
7359;SDS011;3720;48.274;7.796;2024-01-06T04:52:57;6.15;;;4.07;;
7359;SDS011;3720;48.274;7.796;2024-01-06T04:55:30;7.07;;;3.53;;
7359;SDS011;3720;48.274;7.796;2024-01-06T04:58:02;5.47;;;3.15;;
7359;SDS011;3720;48.274;7.796;2024-01-06T05:00:34;7.60;;;3.47;;
7359;SDS011;3720;48.274;7.796;2024-01-06T05:03:07;7.38;;;3.58;;
7359;SDS011;3720;48.274;7.796;2024-01-06T05:05:39;5.30;;;3.20;;
7359;SDS011;3720;48.274;7.796;2024-01-06T05:08:10;5.82;;;3.40;;
7359;SDS011;3720;48.274;7.796;2024-01-06T05:10:44;5.70;;;3.40;;
7359;SDS011;3720;48.274;7.796;2024-01-06T05:13:16;5.28;;;3.13;;
7359;SDS011;3720;48.274;7.796;2024-01-06T05:15:48;8.55;;;3.40;;
7359;SDS011;3720;48.274;7.796;2024-01-06T05:18:20;7.57;;;3.13;;
7359;SDS011;3720;48.274;7.796;2024-01-06T05:20:52;7.43;;;3.30;;
7359;SDS011;3720;48.274;7.796;2024-01-06T05:23:24;5.63;;;2.97;;
7359;SDS011;3720;48.274;7.796;2024-01-06T05:25:57;5.97;;;2.97;;
7359;SDS011;3720;48.274;7.796;2024-01-06T05:28:29;4.65;;;3.10;;
7359;SDS011;3720;48.274;7.796;2024-01-06T05:31:01;5.65;;;3.05;;
7359;SDS011;3720;48.274;7.796;2024-01-06T05:33:33;8.38;;;3.30;;
7359;SDS011;3720;48.274;7.796;2024-01-06T05:36:05;5.57;;;2.90;;
7359;SDS011;3720;48.274;7.796;2024-01-06T05:38:37;5.35;;;3.10;;
7359;SDS011;3720;48.274;7.796;2024-01-06T05:41:11;7.10;;;3.22;;
7359;SDS011;3720;48.274;7.796;2024-01-06T05:43:42;6.40;;;3.05;;
7359;SDS011;3720;48.274;7.796;2024-01-06T05:46:20;6.30;;;3.00;;
7359;SDS011;3720;48.274;7.796;2024-01-06T05:48:52;6.43;;;3.30;;
7359;SDS011;3720;48.274;7.796;2024-01-06T05:51:26;6.05;;;3.50;;
7359;SDS011;3720;48.274;7.796;2024-01-06T05:53:57;6.95;;;3.25;;
7359;SDS011;3720;48.274;7.796;2024-01-06T05:56:31;7.22;;;3.40;;
7359;SDS011;3720;48.274;7.796;2024-01-06T05:59:03;7.60;;;3.40;;
7359;SDS011;3720;48.274;7.796;2024-01-06T06:01:34;8.38;;;3.60;;
7359;SDS011;3720;48.274;7.796;2024-01-06T06:04:06;6.72;;;3.40;;
7359;SDS011;3720;48.274;7.796;2024-01-06T06:06:38;6.65;;;3.50;;
7359;SDS011;3720;48.274;7.796;2024-01-06T06:09:10;6.53;;;3.42;;
7359;SDS011;3720;48.274;7.796;2024-01-06T06:11:44;7.32;;;3.50;;
7359;SDS011;3720;48.274;7.796;2024-01-06T06:14:16;6.00;;;3.60;;
7359;SDS011;3720;48.274;7.796;2024-01-06T06:16:48;5.85;;;2.97;;
7359;SDS011;3720;48.274;7.796;2024-01-06T06:19:19;7.07;;;3.83;;
7359;SDS011;3720;48.274;7.796;2024-01-06T06:21:51;9.35;;;3.72;;
7359;SDS011;3720;48.274;7.796;2024-01-06T06:24:23;9.63;;;3.60;;
7359;SDS011;3720;48.274;7.796;2024-01-06T06:26:56;6.53;;;3.05;;
7359;SDS011;3720;48.274;7.796;2024-01-06T06:29:28;5.95;;;3.13;;
7359;SDS011;3720;48.274;7.796;2024-01-06T06:32:00;6.70;;;3.28;;
7359;SDS011;3720;48.274;7.796;2024-01-06T06:34:31;5.00;;;2.92;;
7359;SDS011;3720;48.274;7.796;2024-01-06T06:37:03;5.20;;;3.00;;
7359;SDS011;3720;48.274;7.796;2024-01-06T06:39:35;4.80;;;3.10;;
7359;SDS011;3720;48.274;7.796;2024-01-06T06:42:09;6.60;;;2.95;;
7359;SDS011;3720;48.274;7.796;2024-01-06T06:44:41;7.03;;;3.00;;
7359;SDS011;3720;48.274;7.796;2024-01-06T06:47:13;5.70;;;3.15;;
7359;SDS011;3720;48.274;7.796;2024-01-06T06:49:45;6.45;;;3.03;;
7359;SDS011;3720;48.274;7.796;2024-01-06T06:52:16;5.88;;;3.28;;
7359;SDS011;3720;48.274;7.796;2024-01-06T06:54:48;5.18;;;3.15;;
7359;SDS011;3720;48.274;7.796;2024-01-06T06:57:23;5.57;;;3.20;;
7359;SDS011;3720;48.274;7.796;2024-01-06T06:59:55;5.28;;;3.08;;
7359;SDS011;3720;48.274;7.796;2024-01-06T07:02:27;6.05;;;3.00;;
7359;SDS011;3720;48.274;7.796;2024-01-06T07:04:59;5.93;;;3.17;;
7359;SDS011;3720;48.274;7.796;2024-01-06T07:07:30;5.30;;;2.88;;
7359;SDS011;3720;48.274;7.796;2024-01-06T07:10:02;4.88;;;2.63;;
7359;SDS011;3720;48.274;7.796;2024-01-06T07:12:36;4.55;;;2.80;;
7359;SDS011;3720;48.274;7.796;2024-01-06T07:15:08;4.85;;;2.95;;
7359;SDS011;3720;48.274;7.796;2024-01-06T07:17:41;4.40;;;2.88;;
7359;SDS011;3720;48.274;7.796;2024-01-06T07:20:13;5.25;;;3.17;;
7359;SDS011;3720;48.274;7.796;2024-01-06T07:22:45;4.47;;;2.95;;
7359;SDS011;3720;48.274;7.796;2024-01-06T07:25:17;6.47;;;3.40;;
7359;SDS011;3720;48.274;7.796;2024-01-06T07:27:50;5.95;;;3.28;;
7359;SDS011;3720;48.274;7.796;2024-01-06T07:30:22;5.13;;;3.20;;
7359;SDS011;3720;48.274;7.796;2024-01-06T07:32:53;6.10;;;3.08;;
7359;SDS011;3720;48.274;7.796;2024-01-06T07:35:25;7.00;;;3.20;;
7359;SDS011;3720;48.274;7.796;2024-01-06T07:37:58;5.97;;;3.28;;
7359;SDS011;3720;48.274;7.796;2024-01-06T07:40:30;7.85;;;3.20;;
7359;SDS011;3720;48.274;7.796;2024-01-06T07:43:04;5.75;;;3.10;;
7359;SDS011;3720;48.274;7.796;2024-01-06T07:45:37;5.97;;;3.30;;
7359;SDS011;3720;48.274;7.796;2024-01-06T07:48:08;5.25;;;3.20;;
7359;SDS011;3720;48.274;7.796;2024-01-06T07:50:40;6.53;;;3.30;;
7359;SDS011;3720;48.274;7.796;2024-01-06T07:53:12;6.07;;;3.22;;
7359;SDS011;3720;48.274;7.796;2024-01-06T07:55:44;8.52;;;3.70;;
7359;SDS011;3720;48.274;7.796;2024-01-06T07:58:18;8.40;;;3.70;;
7359;SDS011;3720;48.274;7.796;2024-01-06T08:00:51;7.05;;;3.80;;
7359;SDS011;3720;48.274;7.796;2024-01-06T08:03:23;8.38;;;3.95;;
7359;SDS011;3720;48.274;7.796;2024-01-06T08:05:55;7.60;;;3.80;;
7359;SDS011;3720;48.274;7.796;2024-01-06T08:08:27;5.72;;;3.58;;
7359;SDS011;3720;48.274;7.796;2024-01-06T08:10:58;7.43;;;3.65;;
7359;SDS011;3720;48.274;7.796;2024-01-06T08:13:32;9.70;;;5.00;;
7359;SDS011;3720;48.274;7.796;2024-01-06T08:16:04;8.20;;;4.72;;
7359;SDS011;3720;48.274;7.796;2024-01-06T08:18:36;10.02;;;5.32;;
7359;SDS011;3720;48.274;7.796;2024-01-06T08:21:08;8.23;;;5.45;;
7359;SDS011;3720;48.274;7.796;2024-01-06T08:23:40;12.25;;;6.45;;
7359;SDS011;3720;48.274;7.796;2024-01-06T08:26:12;11.52;;;6.03;;
7359;SDS011;3720;48.274;7.796;2024-01-06T08:28:45;10.10;;;5.72;;
7359;SDS011;3720;48.274;7.796;2024-01-06T08:31:17;9.50;;;5.63;;
7359;SDS011;3720;48.274;7.796;2024-01-06T08:33:49;9.75;;;5.57;;
7359;SDS011;3720;48.274;7.796;2024-01-06T08:36:20;8.82;;;5.85;;
7359;SDS011;3720;48.274;7.796;2024-01-06T08:38:53;9.00;;;5.68;;
7359;SDS011;3720;48.274;7.796;2024-01-06T08:41:24;10.20;;;6.03;;
7359;SDS011;3720;48.274;7.796;2024-01-06T08:43:58;8.45;;;5.68;;
7359;SDS011;3720;48.274;7.796;2024-01-06T08:46:29;9.88;;;6.22;;
7359;SDS011;3720;48.274;7.796;2024-01-06T08:49:01;10.23;;;6.88;;
7359;SDS011;3720;48.274;7.796;2024-01-06T08:51:33;16.83;;;8.27;;
7359;SDS011;3720;48.274;7.796;2024-01-06T08:54:05;13.50;;;7.30;;
7359;SDS011;3720;48.274;7.796;2024-01-06T08:56:37;10.48;;;6.68;;
7359;SDS011;3720;48.274;7.796;2024-01-06T08:59:10;12.70;;;6.30;;
7359;SDS011;3720;48.274;7.796;2024-01-06T09:01:42;11.70;;;6.45;;
7359;SDS011;3720;48.274;7.796;2024-01-06T09:04:14;9.77;;;5.85;;
7359;SDS011;3720;48.274;7.796;2024-01-06T09:06:46;9.23;;;5.32;;
7359;SDS011;3720;48.274;7.796;2024-01-06T09:09:18;9.95;;;5.45;;
7359;SDS011;3720;48.274;7.796;2024-01-06T09:11:50;9.98;;;5.53;;
7359;SDS011;3720;48.274;7.796;2024-01-06T09:14:23;9.20;;;4.20;;
7359;SDS011;3720;48.274;7.796;2024-01-06T09:16:57;9.60;;;5.25;;
7359;SDS011;3720;48.274;7.796;2024-01-06T09:19:29;11.82;;;5.68;;
7359;SDS011;3720;48.274;7.796;2024-01-06T09:22:00;10.15;;;5.50;;
7359;SDS011;3720;48.274;7.796;2024-01-06T09:24:32;11.38;;;7.07;;
7359;SDS011;3720;48.274;7.796;2024-01-06T09:27:04;12.68;;;7.43;;
7359;SDS011;3720;48.274;7.796;2024-01-06T09:29:37;12.93;;;8.35;;
7359;SDS011;3720;48.274;7.796;2024-01-06T09:32:09;17.73;;;8.90;;
7359;SDS011;3720;48.274;7.796;2024-01-06T09:34:43;13.15;;;8.50;;
7359;SDS011;3720;48.274;7.796;2024-01-06T09:37:14;13.90;;;8.20;;
7359;SDS011;3720;48.274;7.796;2024-01-06T09:39:46;12.52;;;7.93;;
7359;SDS011;3720;48.274;7.796;2024-01-06T09:42:19;14.98;;;7.30;;
7359;SDS011;3720;48.274;7.796;2024-01-06T09:44:52;12.55;;;6.90;;
7359;SDS011;3720;48.274;7.796;2024-01-06T09:47:24;11.95;;;6.07;;
7359;SDS011;3720;48.274;7.796;2024-01-06T09:50:00;8.93;;;5.75;;
7359;SDS011;3720;48.274;7.796;2024-01-06T09:52:33;9.20;;;4.85;;
7359;SDS011;3720;48.274;7.796;2024-01-06T09:55:10;7.10;;;4.22;;
7359;SDS011;3720;48.274;7.796;2024-01-06T09:57:43;5.10;;;3.28;;
7359;SDS011;3720;48.274;7.796;2024-01-06T10:00:18;7.20;;;3.10;;
7359;SDS011;3720;48.274;7.796;2024-01-06T10:02:50;6.45;;;3.05;;
7359;SDS011;3720;48.274;7.796;2024-01-06T10:05:22;5.15;;;3.33;;
7359;SDS011;3720;48.274;7.796;2024-01-06T10:07:54;5.32;;;3.30;;
7359;SDS011;3720;48.274;7.796;2024-01-06T10:10:26;3.95;;;3.08;;
7359;SDS011;3720;48.274;7.796;2024-01-06T10:12:59;4.95;;;3.20;;
7359;SDS011;3720;48.274;7.796;2024-01-06T10:15:32;5.38;;;3.17;;
7359;SDS011;3720;48.274;7.796;2024-01-06T10:18:07;6.40;;;3.70;;
7359;SDS011;3720;48.274;7.796;2024-01-06T10:20:38;4.70;;;2.97;;
7359;SDS011;3720;48.274;7.796;2024-01-06T10:23:10;5.15;;;2.95;;
7359;SDS011;3720;48.274;7.796;2024-01-06T10:25:43;5.03;;;2.90;;
7359;SDS011;3720;48.274;7.796;2024-01-06T10:28:14;5.05;;;2.75;;
7359;SDS011;3720;48.274;7.796;2024-01-06T10:30:48;5.95;;;3.22;;
7359;SDS011;3720;48.274;7.796;2024-01-06T10:33:23;3.92;;;2.90;;
7359;SDS011;3720;48.274;7.796;2024-01-06T10:35:56;4.78;;;3.28;;
7359;SDS011;3720;48.274;7.796;2024-01-06T10:38:29;6.22;;;3.17;;
7359;SDS011;3720;48.274;7.796;2024-01-06T10:41:01;4.47;;;2.97;;
7359;SDS011;3720;48.274;7.796;2024-01-06T10:43:37;3.83;;;2.47;;
7359;SDS011;3720;48.274;7.796;2024-01-06T10:46:12;4.10;;;2.83;;
7359;SDS011;3720;48.274;7.796;2024-01-06T10:48:46;6.15;;;3.10;;
7359;SDS011;3720;48.274;7.796;2024-01-06T10:51:18;4.72;;;2.70;;
7359;SDS011;3720;48.274;7.796;2024-01-06T10:53:52;7.60;;;2.78;;
7359;SDS011;3720;48.274;7.796;2024-01-06T10:56:25;3.53;;;2.70;;
7359;SDS011;3720;48.274;7.796;2024-01-06T10:58:56;5.93;;;3.45;;
7359;SDS011;3720;48.274;7.796;2024-01-06T11:01:30;4.60;;;3.10;;
7359;SDS011;3720;48.274;7.796;2024-01-06T11:04:03;5.30;;;3.30;;
7359;SDS011;3720;48.274;7.796;2024-01-06T11:06:36;4.40;;;3.10;;
7359;SDS011;3720;48.274;7.796;2024-01-06T11:09:09;5.32;;;3.30;;
7359;SDS011;3720;48.274;7.796;2024-01-06T11:11:47;6.45;;;3.22;;
7359;SDS011;3720;48.274;7.796;2024-01-06T11:14:20;5.65;;;3.47;;
7359;SDS011;3720;48.274;7.796;2024-01-06T11:16:55;4.72;;;3.38;;
7359;SDS011;3720;48.274;7.796;2024-01-06T11:19:43;6.03;;;3.45;;
7359;SDS011;3720;48.274;7.796;2024-01-06T11:22:18;5.57;;;3.40;;
7359;SDS011;3720;48.274;7.796;2024-01-06T11:24:51;4.60;;;3.40;;
7359;SDS011;3720;48.274;7.796;2024-01-06T11:27:24;5.43;;;3.70;;
7359;SDS011;3720;48.274;7.796;2024-01-06T11:29:59;4.10;;;3.20;;
7359;SDS011;3720;48.274;7.796;2024-01-06T11:35:12;5.22;;;3.30;;
7359;SDS011;3720;48.274;7.796;2024-01-06T11:37:52;6.13;;;3.45;;
7359;SDS011;3720;48.274;7.796;2024-01-06T11:40:31;6.10;;;3.60;;
7359;SDS011;3720;48.274;7.796;2024-01-06T11:43:06;5.72;;;3.65;;
7359;SDS011;3720;48.274;7.796;2024-01-06T11:45:39;5.65;;;3.70;;
7359;SDS011;3720;48.274;7.796;2024-01-06T11:48:14;5.47;;;3.55;;
7359;SDS011;3720;48.274;7.796;2024-01-06T11:50:47;4.90;;;3.53;;
7359;SDS011;3720;48.274;7.796;2024-01-06T11:53:18;7.43;;;3.90;;
7359;SDS011;3720;48.274;7.796;2024-01-06T11:55:51;6.45;;;4.30;;
7359;SDS011;3720;48.274;7.796;2024-01-06T11:58:23;5.22;;;3.65;;
7359;SDS011;3720;48.274;7.796;2024-01-06T12:00:56;6.40;;;3.70;;
7359;SDS011;3720;48.274;7.796;2024-01-06T12:03:29;5.40;;;3.67;;
7359;SDS011;3720;48.274;7.796;2024-01-06T12:06:01;4.63;;;3.17;;
7359;SDS011;3720;48.274;7.796;2024-01-06T12:08:34;5.53;;;3.85;;
7359;SDS011;3720;48.274;7.796;2024-01-06T12:11:06;6.22;;;3.95;;
7359;SDS011;3720;48.274;7.796;2024-01-06T12:13:38;4.68;;;3.40;;
7359;SDS011;3720;48.274;7.796;2024-01-06T12:16:10;5.72;;;3.30;;
7359;SDS011;3720;48.274;7.796;2024-01-06T12:18:43;4.30;;;2.95;;
7359;SDS011;3720;48.274;7.796;2024-01-06T12:21:15;5.13;;;3.40;;
7359;SDS011;3720;48.274;7.796;2024-01-06T12:23:48;4.82;;;3.60;;
7359;SDS011;3720;48.274;7.796;2024-01-06T12:26:19;4.53;;;3.78;;
7359;SDS011;3720;48.274;7.796;2024-01-06T12:28:51;7.05;;;4.05;;
7359;SDS011;3720;48.274;7.796;2024-01-06T12:31:23;8.75;;;4.50;;
7359;SDS011;3720;48.274;7.796;2024-01-06T12:33:59;7.18;;;4.35;;
7359;SDS011;3720;48.274;7.796;2024-01-06T12:36:31;7.57;;;4.82;;
7359;SDS011;3720;48.274;7.796;2024-01-06T12:39:02;6.93;;;4.10;;
7359;SDS011;3720;48.274;7.796;2024-01-06T12:41:35;6.68;;;3.90;;
7359;SDS011;3720;48.274;7.796;2024-01-06T12:44:09;5.60;;;3.45;;
7359;SDS011;3720;48.274;7.796;2024-01-06T12:46:40;4.00;;;3.15;;
7359;SDS011;3720;48.274;7.796;2024-01-06T12:49:14;8.40;;;4.38;;
7359;SDS011;3720;48.274;7.796;2024-01-06T12:51:46;6.97;;;4.35;;
7359;SDS011;3720;48.274;7.796;2024-01-06T12:54:17;6.70;;;4.45;;
7359;SDS011;3720;48.274;7.796;2024-01-06T12:56:49;9.75;;;5.90;;
7359;SDS011;3720;48.274;7.796;2024-01-06T12:59:21;5.53;;;3.85;;
7359;SDS011;3720;48.274;7.796;2024-01-06T13:01:53;5.80;;;3.63;;
7359;SDS011;3720;48.274;7.796;2024-01-06T13:04:26;5.57;;;3.50;;
7359;SDS011;3720;48.274;7.796;2024-01-06T13:06:58;7.32;;;3.65;;
7359;SDS011;3720;48.274;7.796;2024-01-06T13:09:30;6.07;;;3.47;;
7359;SDS011;3720;48.274;7.796;2024-01-06T13:12:02;4.80;;;3.28;;
7359;SDS011;3720;48.274;7.796;2024-01-06T13:14:35;6.35;;;3.70;;
7359;SDS011;3720;48.274;7.796;2024-01-06T13:17:08;6.55;;;3.53;;
7359;SDS011;3720;48.274;7.796;2024-01-06T13:19:41;4.72;;;3.53;;
7359;SDS011;3720;48.274;7.796;2024-01-06T13:22:13;5.93;;;3.42;;
7359;SDS011;3720;48.274;7.796;2024-01-06T13:24:46;5.75;;;3.70;;
7359;SDS011;3720;48.274;7.796;2024-01-06T13:27:18;5.57;;;3.70;;
7359;SDS011;3720;48.274;7.796;2024-01-06T13:29:49;5.97;;;3.95;;
7359;SDS011;3720;48.274;7.796;2024-01-06T13:32:21;7.00;;;4.15;;
7359;SDS011;3720;48.274;7.796;2024-01-06T13:34:55;5.85;;;3.90;;
7359;SDS011;3720;48.274;7.796;2024-01-06T13:37:34;5.75;;;3.70;;
7359;SDS011;3720;48.274;7.796;2024-01-06T13:40:06;5.72;;;3.50;;
7359;SDS011;3720;48.274;7.796;2024-01-06T13:42:40;6.90;;;3.63;;
7359;SDS011;3720;48.274;7.796;2024-01-06T13:45:12;6.10;;;3.58;;
7359;SDS011;3720;48.274;7.796;2024-01-06T13:47:44;7.05;;;4.47;;
7359;SDS011;3720;48.274;7.796;2024-01-06T13:50:18;7.05;;;5.03;;
7359;SDS011;3720;48.274;7.796;2024-01-06T13:52:50;8.85;;;5.78;;
7359;SDS011;3720;48.274;7.796;2024-01-06T13:55:22;8.93;;;6.30;;
7359;SDS011;3720;48.274;7.796;2024-01-06T13:57:53;8.25;;;5.38;;
7359;SDS011;3720;48.274;7.796;2024-01-06T14:00:25;9.20;;;5.47;;
7359;SDS011;3720;48.274;7.796;2024-01-06T14:02:57;8.10;;;4.82;;
7359;SDS011;3720;48.274;7.796;2024-01-06T14:05:30;7.78;;;4.72;;
7359;SDS011;3720;48.274;7.796;2024-01-06T14:08:02;5.90;;;4.07;;
7359;SDS011;3720;48.274;7.796;2024-01-06T14:10:35;5.47;;;4.32;;
7359;SDS011;3720;48.274;7.796;2024-01-06T14:13:08;8.27;;;4.40;;
7359;SDS011;3720;48.274;7.796;2024-01-06T14:15:39;6.60;;;4.50;;
7359;SDS011;3720;48.274;7.796;2024-01-06T14:18:11;6.85;;;4.43;;
7359;SDS011;3720;48.274;7.796;2024-01-06T14:20:47;8.40;;;4.70;;
7359;SDS011;3720;48.274;7.796;2024-01-06T14:23:19;5.93;;;4.38;;
7359;SDS011;3720;48.274;7.796;2024-01-06T14:25:51;6.70;;;5.10;;
7359;SDS011;3720;48.274;7.796;2024-01-06T14:28:23;7.68;;;5.60;;
7359;SDS011;3720;48.274;7.796;2024-01-06T14:30:55;8.70;;;5.85;;
7359;SDS011;3720;48.274;7.796;2024-01-06T14:33:27;8.32;;;6.35;;
7359;SDS011;3720;48.274;7.796;2024-01-06T14:36:00;9.13;;;6.50;;
7359;SDS011;3720;48.274;7.796;2024-01-06T14:38:33;11.52;;;7.78;;
7359;SDS011;3720;48.274;7.796;2024-01-06T14:41:05;11.90;;;8.10;;
7359;SDS011;3720;48.274;7.796;2024-01-06T14:43:36;9.73;;;7.13;;
7359;SDS011;3720;48.274;7.796;2024-01-06T14:46:09;10.93;;;7.03;;
7359;SDS011;3720;48.274;7.796;2024-01-06T14:48:41;8.85;;;6.18;;
7359;SDS011;3720;48.274;7.796;2024-01-06T14:51:14;8.43;;;6.40;;
7359;SDS011;3720;48.274;7.796;2024-01-06T14:53:46;11.95;;;7.18;;
7359;SDS011;3720;48.274;7.796;2024-01-06T14:56:18;12.15;;;8.27;;
7359;SDS011;3720;48.274;7.796;2024-01-06T14:58:50;14.93;;;10.05;;
7359;SDS011;3720;48.274;7.796;2024-01-06T15:01:21;18.15;;;11.20;;
7359;SDS011;3720;48.274;7.796;2024-01-06T15:03:53;17.40;;;11.00;;
7359;SDS011;3720;48.274;7.796;2024-01-06T15:06:27;20.73;;;12.77;;
7359;SDS011;3720;48.274;7.796;2024-01-06T15:08:58;24.25;;;14.88;;
7359;SDS011;3720;48.274;7.796;2024-01-06T15:11:31;22.23;;;14.30;;
7359;SDS011;3720;48.274;7.796;2024-01-06T15:14:03;21.80;;;12.98;;
7359;SDS011;3720;48.274;7.796;2024-01-06T15:16:38;14.82;;;9.95;;
7359;SDS011;3720;48.274;7.796;2024-01-06T15:19:10;13.30;;;8.65;;
7359;SDS011;3720;48.274;7.796;2024-01-06T15:21:44;14.45;;;9.05;;
7359;SDS011;3720;48.274;7.796;2024-01-06T15:24:17;17.05;;;10.85;;
7359;SDS011;3720;48.274;7.796;2024-01-06T15:26:49;16.00;;;10.10;;
7359;SDS011;3720;48.274;7.796;2024-01-06T15:29:22;30.85;;;18.15;;
7359;SDS011;3720;48.274;7.796;2024-01-06T15:31:54;27.85;;;16.75;;
7359;SDS011;3720;48.274;7.796;2024-01-06T15:34:27;22.85;;;13.52;;
7359;SDS011;3720;48.274;7.796;2024-01-06T15:37:00;18.33;;;11.23;;
7359;SDS011;3720;48.274;7.796;2024-01-06T15:39:32;17.50;;;10.88;;
7359;SDS011;3720;48.274;7.796;2024-01-06T15:42:03;15.15;;;9.73;;